Time;durP1;ratioP1;P1;durP2;ratioP2;P2;SDS_P1;SDS_P2;PMS_P1;PMS_P2;Temp;Humidity;BMP_temperature;BMP_pressure;BME280_temperature;BME280_humidity;BME280_pressure;Samples;Min_cycle;Max_cycle;Signal;HPM_P1;HPM_P2
2022/04/09 00:00:13;;;;;;;3.38;2.08;;;;;;;;;;5047025;28;20033;-51
2022/04/09 00:02:39;;;;;;;5.15;2.42;;;;;;;;;;5053743;28;20017;-47
2022/04/09 00:05:05;;;;;;;3.92;2.60;;;;;;;;;;5052207;28;20507;-51
2022/04/09 00:07:31;;;;;;;4.88;2.78;;;;;;;;;;5042258;28;20033;-49
2022/04/09 00:09:57;;;;;;;8.55;2.53;;;;;;;;;;5038427;28;20044;-47
2022/04/09 00:12:23;;;;;;;4.95;2.53;;;;;;;;;;5047688;28;20025;-47
2022/04/09 00:14:49;;;;;;;5.03;2.33;;;;;;;;;;5037442;28;20381;-48
2022/04/09 00:17:15;;;;;;;3.13;2.10;;;;;;;;;;5043249;28;20052;-47
2022/04/09 00:19:41;;;;;;;5.95;2.63;;;;;;;;;;5052936;28;20068;-49
2022/04/09 00:22:07;;;;;;;3.90;2.25;;;;;;;;;;5044228;28;20041;-48
2022/04/09 00:24:33;;;;;;;4.07;2.17;;;;;;;;;;5039633;28;20067;-48
2022/04/09 00:26:59;;;;;;;5.03;2.78;;;;;;;;;;5045146;28;20025;-48
2022/04/09 00:29:25;;;;;;;3.05;2.58;;;;;;;;;;5051040;28;20033;-47
2022/04/09 00:31:51;;;;;;;2.85;1.95;;;;;;;;;;5038500;28;20525;-51
2022/04/09 00:34:17;;;;;;;3.85;2.35;;;;;;;;;;5042369;28;20029;-50
2022/04/09 00:36:43;;;;;;;3.95;2.00;;;;;;;;;;5049858;28;20037;-48
2022/04/09 00:39:09;;;;;;;6.50;2.28;;;;;;;;;;5044891;28;20100;-48
2022/04/09 00:41:35;;;;;;;2.70;2.13;;;;;;;;;;5045208;28;20033;-49
2022/04/09 00:44:01;;;;;;;3.70;2.15;;;;;;;;;;5045340;28;20029;-49
2022/04/09 00:46:27;;;;;;;5.00;2.00;;;;;;;;;;5038051;28;20040;-48
2022/04/09 00:48:53;;;;;;;4.10;2.30;;;;;;;;;;5043881;28;20040;-47
2022/04/09 00:51:19;;;;;;;3.88;1.90;;;;;;;;;;5044724;28;20028;-48
2022/04/09 00:53:47;;;;;;;7.25;2.40;;;;;;;;;;5052625;28;20025;-47
2022/04/09 00:56:18;;;;;;;3.58;2.60;;;;;;;;;;5047489;28;20052;-47
2022/04/09 00:58:57;;;;;;;9.18;2.47;;;;;;;;;;5033226;28;20044;-47
2022/04/09 01:01:23;;;;;;;3.58;1.95;;;;;;;;;;5043289;28;20499;-49
2022/04/09 01:03:53;;;;;;;4.47;2.22;;;;;;;;;;5051875;28;20056;-49
2022/04/09 01:06:19;;;;;;;3.72;2.17;;;;;;;;;;5039097;28;20382;-48
2022/04/09 01:08:45;;;;;;;10.40;2.53;;;;;;;;;;5040002;28;20482;-48
2022/04/09 01:11:12;;;;;;;2.85;1.95;;;;;;;;;;5033471;28;20029;-49
2022/04/09 01:13:39;;;;;;;2.20;1.63;;;;;;;;;;5041656;28;20032;-51
2022/04/09 01:16:05;;;;;;;3.83;2.47;;;;;;;;;;5037076;28;20041;-49
2022/04/09 01:18:33;;;;;;;4.47;2.05;;;;;;;;;;5033408;28;20552;-50
2022/04/09 01:20:59;;;;;;;3.63;2.10;;;;;;;;;;5040117;28;20037;-51
2022/04/09 01:23:25;;;;;;;6.15;2.30;;;;;;;;;;5039577;28;20036;-51
2022/04/09 01:25:52;;;;;;;3.33;1.85;;;;;;;;;;5045690;28;20021;-49
2022/04/09 01:28:18;;;;;;;7.85;2.35;;;;;;;;;;5041697;28;20167;-49
2022/04/09 01:30:45;;;;;;;3.67;2.22;;;;;;;;;;5036778;28;20037;-50
2022/04/09 01:33:21;;;;;;;3.00;2.33;;;;;;;;;;5031984;28;20035;-48
2022/04/09 01:35:47;;;;;;;4.85;2.15;;;;;;;;;;5046323;28;20041;-47
2022/04/09 01:38:14;;;;;;;4.57;1.90;;;;;;;;;;5049619;28;20021;-47
2022/04/09 01:40:40;;;;;;;3.17;1.80;;;;;;;;;;5033412;28;20052;-47
2022/04/09 01:43:06;;;;;;;3.92;2.08;;;;;;;;;;5044023;28;20021;-48
2022/04/09 01:45:32;;;;;;;3.35;1.65;;;;;;;;;;5039197;28;20401;-47
2022/04/09 01:47:59;;;;;;;6.05;2.00;;;;;;;;;;5045893;28;20485;-53
2022/04/09 01:50:29;;;;;;;7.00;2.35;;;;;;;;;;5032166;28;20029;-51
2022/04/09 01:52:56;;;;;;;4.72;2.03;;;;;;;;;;5040799;28;20056;-50
2022/04/09 01:55:22;;;;;;;7.00;2.33;;;;;;;;;;5042004;28;20523;-49
2022/04/09 01:57:49;;;;;;;4.60;2.08;;;;;;;;;;5044027;28;20035;-50
2022/04/09 02:00:16;;;;;;;2.55;1.98;;;;;;;;;;5044670;28;20032;-53
2022/04/09 02:02:42;;;;;;;4.47;2.03;;;;;;;;;;5033950;28;20112;-48
2022/04/09 02:05:08;;;;;;;5.40;2.35;;;;;;;;;;5036702;28;20038;-48
2022/04/09 02:07:35;;;;;;;6.28;1.90;;;;;;;;;;5042756;28;20029;-48
2022/04/09 02:10:02;;;;;;;4.00;2.40;;;;;;;;;;5046521;28;20056;-48
2022/04/09 02:12:31;;;;;;;3.90;2.53;;;;;;;;;;5044837;28;20032;-48
2022/04/09 02:14:57;;;;;;;4.90;2.63;;;;;;;;;;5045716;28;20488;-49
2022/04/09 02:17:23;;;;;;;5.82;2.00;;;;;;;;;;5042219;28;20128;-49
2022/04/09 02:19:49;;;;;;;4.53;2.13;;;;;;;;;;5038699;28;20029;-48
2022/04/09 02:22:15;;;;;;;7.28;2.05;;;;;;;;;;5047452;28;20078;-48
2022/04/09 02:24:41;;;;;;;4.68;1.80;;;;;;;;;;5038217;28;20522;-48
2022/04/09 02:27:07;;;;;;;7.10;2.13;;;;;;;;;;5050159;28;20025;-48
2022/04/09 02:29:33;;;;;;;2.83;1.95;;;;;;;;;;5047067;28;20036;-52
2022/04/09 02:32:01;;;;;;;2.40;1.70;;;;;;;;;;5039372;28;20585;-50
2022/04/09 02:34:27;;;;;;;3.33;2.00;;;;;;;;;;5036444;28;20700;-48
2022/04/09 02:36:53;;;;;;;9.10;1.80;;;;;;;;;;5048485;28;20032;-48
2022/04/09 02:39:21;;;;;;;3.60;1.90;;;;;;;;;;5050136;28;20017;-49
2022/04/09 02:41:48;;;;;;;6.07;2.30;;;;;;;;;;5039151;28;20130;-53
2022/04/09 02:44:14;;;;;;;5.90;2.25;;;;;;;;;;5043103;28;20049;-48
2022/04/09 02:46:40;;;;;;;5.75;2.05;;;;;;;;;;5046108;28;20083;-48
2022/04/09 02:49:06;;;;;;;4.50;2.17;;;;;;;;;;5050925;28;20022;-50
2022/04/09 02:51:32;;;;;;;4.63;2.33;;;;;;;;;;5039639;28;20139;-48
2022/04/09 02:53:58;;;;;;;4.95;2.20;;;;;;;;;;5052114;28;20030;-50
2022/04/09 02:56:24;;;;;;;3.22;2.05;;;;;;;;;;5052027;28;20052;-49
2022/04/09 02:58:49;;;;;;;6.47;2.55;;;;;;;;;;5042275;28;20032;-48
2022/04/09 03:01:16;;;;;;;4.80;2.05;;;;;;;;;;5050078;28;20033;-51
2022/04/09 03:03:41;;;;;;;8.80;2.90;;;;;;;;;;5042754;28;20033;-48
2022/04/09 03:06:07;;;;;;;8.48;2.50;;;;;;;;;;5047629;28;20041;-50
2022/04/09 03:08:34;;;;;;;11.30;3.20;;;;;;;;;;5049096;28;20032;-47
2022/04/09 03:11:00;;;;;;;7.93;2.30;;;;;;;;;;5052242;28;20104;-47
2022/04/09 03:13:26;;;;;;;2.92;2.10;;;;;;;;;;5046341;28;20029;-47
2022/04/09 03:15:52;;;;;;;4.03;2.08;;;;;;;;;;5038446;28;20029;-50
2022/04/09 03:18:18;;;;;;;4.82;2.38;;;;;;;;;;5048791;28;20461;-47
2022/04/09 03:20:44;;;;;;;3.05;2.42;;;;;;;;;;5046121;28;20040;-49
2022/04/09 03:23:10;;;;;;;3.58;2.28;;;;;;;;;;5046716;28;20374;-49
2022/04/09 03:25:36;;;;;;;3.28;2.22;;;;;;;;;;5047048;28;20029;-49
2022/04/09 03:28:02;;;;;;;5.05;2.47;;;;;;;;;;5048605;28;20032;-47
2022/04/09 03:30:28;;;;;;;6.35;2.40;;;;;;;;;;5054040;28;20036;-48
2022/04/09 03:32:54;;;;;;;6.35;2.25;;;;;;;;;;5043523;28;20021;-50
2022/04/09 03:35:20;;;;;;;3.92;2.63;;;;;;;;;;5050716;28;21925;-52
2022/04/09 03:37:46;;;;;;;8.48;2.90;;;;;;;;;;5053523;28;20021;-51
2022/04/09 03:40:13;;;;;;;10.15;2.45;;;;;;;;;;5049724;28;20053;-51
2022/04/09 03:42:39;;;;;;;7.07;2.97;;;;;;;;;;5049042;28;20017;-49
2022/04/09 03:45:05;;;;;;;7.00;2.40;;;;;;;;;;5045263;28;20048;-51
2022/04/09 03:47:35;;;;;;;4.13;2.25;;;;;;;;;;5037541;28;20026;-48
2022/04/09 03:50:04;;;;;;;4.75;2.33;;;;;;;;;;5038986;28;20025;-48
2022/04/09 03:52:30;;;;;;;8.77;2.80;;;;;;;;;;5040934;28;20029;-48
2022/04/09 03:54:56;;;;;;;6.53;2.25;;;;;;;;;;5043123;28;20116;-47
2022/04/09 03:57:22;;;;;;;5.05;2.63;;;;;;;;;;5049188;28;20179;-47
2022/04/09 03:59:54;;;;;;;4.93;2.65;;;;;;;;;;5035845;28;20053;-47
2022/04/09 04:02:20;;;;;;;11.07;3.08;;;;;;;;;;5048518;28;20024;-49
2022/04/09 04:04:46;;;;;;;6.85;2.35;;;;;;;;;;5040599;28;20017;-50
2022/04/09 04:07:13;;;;;;;7.15;2.38;;;;;;;;;;5038308;28;20037;-48
2022/04/09 04:09:39;;;;;;;5.57;2.17;;;;;;;;;;5037051;28;20033;-51
2022/04/09 04:12:05;;;;;;;4.55;2.45;;;;;;;;;;5042698;28;20389;-50
2022/04/09 04:14:31;;;;;;;10.57;2.40;;;;;;;;;;5043035;28;20385;-48
2022/04/09 04:16:57;;;;;;;7.45;2.75;;;;;;;;;;5046373;28;20036;-51
2022/04/09 04:19:23;;;;;;;5.88;2.53;;;;;;;;;;5046523;28;20500;-52
2022/04/09 04:21:49;;;;;;;8.55;2.47;;;;;;;;;;5040661;28;20037;-51
2022/04/09 04:24:15;;;;;;;8.63;2.55;;;;;;;;;;5046680;28;20021;-49
2022/04/09 04:26:41;;;;;;;5.53;2.90;;;;;;;;;;5041508;28;20041;-49
2022/04/09 04:29:07;;;;;;;8.00;2.75;;;;;;;;;;5049569;28;20382;-48
2022/04/09 04:31:33;;;;;;;11.90;2.83;;;;;;;;;;5050617;28;20055;-48
2022/04/09 04:33:59;;;;;;;8.10;2.80;;;;;;;;;;5042946;28;20079;-48
2022/04/09 04:36:25;;;;;;;4.60;2.58;;;;;;;;;;5036590;28;20033;-49
2022/04/09 04:38:51;;;;;;;5.78;3.00;;;;;;;;;;5045969;28;20028;-48
2022/04/09 04:41:17;;;;;;;11.50;2.78;;;;;;;;;;5044833;28;20029;-49
2022/04/09 04:43:44;;;;;;;5.70;2.90;;;;;;;;;;5043502;28;20108;-49
2022/04/09 04:46:10;;;;;;;7.53;3.28;;;;;;;;;;5046622;28;20037;-53
2022/04/09 04:48:36;;;;;;;8.90;3.33;;;;;;;;;;5037047;28;20472;-49
2022/04/09 04:51:02;;;;;;;11.02;3.80;;;;;;;;;;5044762;28;20025;-49
2022/04/09 04:53:28;;;;;;;8.15;3.00;;;;;;;;;;5045189;28;20140;-51
2022/04/09 04:55:54;;;;;;;9.35;3.10;;;;;;;;;;5047411;28;20049;-49
2022/04/09 04:58:20;;;;;;;9.73;3.53;;;;;;;;;;5036884;28;20028;-51
2022/04/09 05:00:46;;;;;;;6.25;3.17;;;;;;;;;;5049330;28;20076;-53
2022/04/09 05:03:12;;;;;;;6.75;2.88;;;;;;;;;;5042117;28;20080;-49
2022/04/09 05:05:38;;;;;;;7.80;2.92;;;;;;;;;;5036786;28;20472;-48
2022/04/09 05:08:04;;;;;;;6.57;2.72;;;;;;;;;;5043004;28;20021;-48
2022/04/09 05:10:30;;;;;;;8.98;2.95;;;;;;;;;;5041252;28;20505;-53
2022/04/09 05:12:58;;;;;;;10.23;3.38;;;;;;;;;;5049798;28;20036;-50
2022/04/09 05:15:24;;;;;;;6.05;2.38;;;;;;;;;;5051291;28;20032;-51
2022/04/09 05:17:50;;;;;;;8.65;3.13;;;;;;;;;;5042933;28;20530;-48
2022/04/09 05:20:16;;;;;;;7.40;3.00;;;;;;;;;;5040168;28;20545;-49
2022/04/09 05:22:48;;;;;;;6.03;2.75;;;;;;;;;;5043681;28;20033;-49
2022/04/09 05:25:17;;;;;;;3.67;2.40;;;;;;;;;;5044093;28;20057;-51
2022/04/09 05:27:43;;;;;;;11.55;2.90;;;;;;;;;;5042317;28;20033;-48
2022/04/09 05:30:10;;;;;;;8.20;2.42;;;;;;;;;;5047408;28;20024;-49
2022/04/09 05:32:36;;;;;;;8.63;3.40;;;;;;;;;;5036321;28;20112;-49
2022/04/09 05:35:03;;;;;;;9.50;2.42;;;;;;;;;;5039495;28;20467;-48
2022/04/09 05:37:31;;;;;;;9.52;2.50;;;;;;;;;;5039230;28;20033;-48
2022/04/09 05:39:57;;;;;;;6.07;3.15;;;;;;;;;;5048052;28;20033;-48
2022/04/09 05:42:25;;;;;;;5.72;2.72;;;;;;;;;;5050501;28;20025;-48
2022/04/09 05:44:51;;;;;;;8.10;2.95;;;;;;;;;;5044588;28;20059;-48
2022/04/09 05:47:17;;;;;;;7.63;2.75;;;;;;;;;;5046554;28;20017;-49
2022/04/09 05:49:43;;;;;;;11.40;2.90;;;;;;;;;;5037308;28;20024;-49
2022/04/09 05:52:09;;;;;;;5.53;2.55;;;;;;;;;;5035742;28;20482;-48
2022/04/09 05:54:35;;;;;;;5.57;2.80;;;;;;;;;;5043703;28;20021;-49
2022/04/09 05:57:02;;;;;;;6.05;2.95;;;;;;;;;;5045048;28;20096;-49
2022/04/09 05:59:30;;;;;;;13.45;3.30;;;;;;;;;;5046289;28;20369;-49
2022/04/09 06:01:56;;;;;;;11.25;3.25;;;;;;;;;;5045613;28;20096;-49
2022/04/09 06:04:22;;;;;;;9.10;3.38;;;;;;;;;;5041777;28;20029;-48
2022/04/09 06:06:49;;;;;;;5.72;2.92;;;;;;;;;;5049568;28;20028;-48
2022/04/09 06:09:15;;;;;;;4.10;2.78;;;;;;;;;;5043633;28;20037;-50
2022/04/09 06:11:42;;;;;;;8.50;2.38;;;;;;;;;;5046496;28;20039;-52
2022/04/09 06:14:08;;;;;;;8.35;3.10;;;;;;;;;;5037255;28;20461;-49
2022/04/09 06:16:38;;;;;;;9.40;2.45;;;;;;;;;;5034615;28;20048;-51
2022/04/09 06:19:04;;;;;;;9.05;2.88;;;;;;;;;;5042971;28;20029;-49
2022/04/09 06:21:30;;;;;;;4.97;2.63;;;;;;;;;;5039817;28;20480;-48
2022/04/09 06:23:56;;;;;;;8.93;3.63;;;;;;;;;;5039986;28;20080;-49
2022/04/09 06:26:22;;;;;;;6.13;2.58;;;;;;;;;;5044807;28;20040;-49
2022/04/09 06:28:48;;;;;;;9.27;3.00;;;;;;;;;;5045405;28;20025;-48
2022/04/09 06:31:14;;;;;;;5.97;2.65;;;;;;;;;;5048236;28;20085;-49
2022/04/09 06:33:40;;;;;;;6.28;2.75;;;;;;;;;;5034203;28;20039;-50
2022/04/09 06:36:06;;;;;;;8.77;3.42;;;;;;;;;;5049673;28;20040;-50
2022/04/09 06:38:33;;;;;;;6.55;3.55;;;;;;;;;;5045102;28;20473;-48
2022/04/09 06:40:59;;;;;;;10.23;3.70;;;;;;;;;;5046430;28;20116;-51
2022/04/09 06:43:26;;;;;;;4.55;1.90;;;;;;;;;;5034888;28;20437;-49
2022/04/09 06:45:52;;;;;;;5.03;2.10;;;;;;;;;;5047103;28;20029;-48
2022/04/09 06:48:18;;;;;;;3.55;2.45;;;;;;;;;;5041034;28;20399;-49
2022/04/09 06:50:44;;;;;;;7.03;2.30;;;;;;;;;;5035205;28;20052;-52
2022/04/09 06:53:10;;;;;;;9.65;2.20;;;;;;;;;;5037929;28;20465;-47
2022/04/09 06:55:36;;;;;;;7.40;3.05;;;;;;;;;;5038046;28;20163;-48
2022/04/09 06:58:03;;;;;;;10.85;2.80;;;;;;;;;;5055982;28;20037;-48
2022/04/09 07:00:30;;;;;;;4.53;2.53;;;;;;;;;;5031374;28;20035;-48
2022/04/09 07:02:56;;;;;;;11.32;3.03;;;;;;;;;;5046077;28;20017;-49
2022/04/09 07:05:22;;;;;;;2.55;1.80;;;;;;;;;;5032772;28;20074;-51
2022/04/09 07:07:48;;;;;;;11.55;3.05;;;;;;;;;;5038133;28;20099;-52
2022/04/09 07:10:15;;;;;;;3.80;2.22;;;;;;;;;;5037314;28;20057;-48
2022/04/09 07:12:41;;;;;;;5.22;2.50;;;;;;;;;;5041775;28;20033;-51
2022/04/09 07:15:07;;;;;;;6.43;2.10;;;;;;;;;;5043126;28;20037;-49
2022/04/09 07:17:33;;;;;;;4.90;1.90;;;;;;;;;;5042185;28;20025;-48
2022/04/09 07:20:00;;;;;;;9.32;2.22;;;;;;;;;;5041163;28;20025;-51
2022/04/09 07:22:26;;;;;;;8.20;2.15;;;;;;;;;;5041466;28;20037;-48
2022/04/09 07:24:52;;;;;;;8.55;2.88;;;;;;;;;;5038297;28;20457;-50
2022/04/09 07:27:18;;;;;;;10.55;2.90;;;;;;;;;;5046062;28;20039;-51
2022/04/09 07:29:44;;;;;;;5.55;2.00;;;;;;;;;;5042925;28;20470;-50
2022/04/09 07:32:10;;;;;;;4.95;2.28;;;;;;;;;;5043422;28;20028;-48
2022/04/09 07:34:36;;;;;;;8.57;2.50;;;;;;;;;;5040849;28;20156;-49
2022/04/09 07:37:03;;;;;;;12.02;2.58;;;;;;;;;;5042596;28;20038;-50
2022/04/09 07:39:29;;;;;;;7.88;2.08;;;;;;;;;;5046763;28;20044;-52
2022/04/09 07:41:55;;;;;;;6.40;1.85;;;;;;;;;;5053314;28;20485;-52
2022/04/09 07:44:22;;;;;;;7.45;2.35;;;;;;;;;;5040744;28;20906;-49
2022/04/09 07:46:48;;;;;;;6.28;2.38;;;;;;;;;;5045659;28;20024;-49
2022/04/09 07:49:14;;;;;;;6.20;2.35;;;;;;;;;;5048653;28;20108;-50
2022/04/09 07:51:40;;;;;;;4.13;2.20;;;;;;;;;;5048009;28;20030;-48
2022/04/09 07:54:06;;;;;;;8.38;2.58;;;;;;;;;;5037616;28;20022;-52
2022/04/09 07:56:32;;;;;;;5.35;2.20;;;;;;;;;;5045598;28;20385;-49
2022/04/09 07:58:58;;;;;;;6.80;2.70;;;;;;;;;;5047910;28;20048;-48
2022/04/09 08:01:24;;;;;;;9.63;2.50;;;;;;;;;;5042814;28;20439;-48
2022/04/09 08:03:50;;;;;;;5.25;2.00;;;;;;;;;;5042291;28;20036;-48
2022/04/09 08:06:16;;;;;;;4.15;1.90;;;;;;;;;;5040271;28;20029;-49
2022/04/09 08:08:42;;;;;;;5.82;1.60;;;;;;;;;;5045697;28;20026;-49
2022/04/09 08:11:10;;;;;;;4.00;1.58;;;;;;;;;;5041544;28;20048;-49
2022/04/09 08:13:36;;;;;;;7.35;1.65;;;;;;;;;;5041183;28;20153;-48
2022/04/09 08:16:02;;;;;;;5.95;1.50;;;;;;;;;;5036053;28;20041;-48
2022/04/09 08:18:28;;;;;;;3.88;1.60;;;;;;;;;;5037631;28;20056;-48
2022/04/09 08:20:54;;;;;;;4.40;1.60;;;;;;;;;;5034284;28;20061;-50
2022/04/09 08:23:20;;;;;;;5.57;1.33;;;;;;;;;;5037973;28;20109;-49
2022/04/09 08:25:48;;;;;;;7.22;1.67;;;;;;;;;;5037440;28;20096;-49
2022/04/09 08:28:14;;;;;;;4.03;1.67;;;;;;;;;;5035158;28;20036;-50
2022/04/09 08:30:41;;;;;;;1.98;1.17;;;;;;;;;;5034656;28;20033;-51
2022/04/09 08:33:07;;;;;;;10.45;1.50;;;;;;;;;;5035705;28;20033;-48
2022/04/09 08:35:34;;;;;;;4.38;1.70;;;;;;;;;;5043559;28;20527;-51
2022/04/09 08:38:01;;;;;;;3.45;1.65;;;;;;;;;;5041631;28;20033;-49
2022/04/09 08:40:28;;;;;;;5.28;1.63;;;;;;;;;;5052040;28;20029;-48
2022/04/09 08:42:54;;;;;;;5.22;1.55;;;;;;;;;;5049141;28;20104;-49
2022/04/09 08:45:20;;;;;;;3.60;1.42;;;;;;;;;;5037459;28;20025;-50
2022/04/09 08:47:47;;;;;;;5.70;1.63;;;;;;;;;;5040175;28;20057;-49
2022/04/09 08:50:14;;;;;;;5.35;1.45;;;;;;;;;;5033672;28;20025;-51
2022/04/09 08:52:41;;;;;;;2.42;1.70;;;;;;;;;;5050076;28;20473;-51
2022/04/09 08:55:07;;;;;;;7.60;1.67;;;;;;;;;;5036516;28;20033;-49
2022/04/09 08:57:35;;;;;;;6.68;2.00;;;;;;;;;;5039550;28;20429;-50
2022/04/09 09:00:04;;;;;;;2.58;1.55;;;;;;;;;;5043532;28;20037;-49
2022/04/09 09:02:31;;;;;;;4.47;1.45;;;;;;;;;;5041081;28;20061;-50
2022/04/09 09:04:57;;;;;;;7.55;1.67;;;;;;;;;;5034287;28;20462;-51
2022/04/09 09:07:24;;;;;;;4.63;1.45;;;;;;;;;;5036298;28;20087;-49
2022/04/09 09:09:51;;;;;;;5.65;1.50;;;;;;;;;;5049986;28;20104;-48
2022/04/09 09:12:28;;;;;;;3.90;1.63;;;;;;;;;;5040986;28;20124;-53
2022/04/09 09:14:54;;;;;;;5.68;1.10;;;;;;;;;;5052308;28;20040;-49
2022/04/09 09:17:30;;;;;;;7.20;1.40;;;;;;;;;;5040834;28;20026;-52
2022/04/09 09:19:57;;;;;;;5.28;1.70;;;;;;;;;;5038005;28;20036;-53
2022/04/09 09:22:35;;;;;;;5.35;1.45;;;;;;;;;;5040093;28;20037;-48
2022/04/09 09:25:05;;;;;;;3.92;1.00;;;;;;;;;;5047668;28;20025;-51
2022/04/09 09:27:31;;;;;;;8.00;1.55;;;;;;;;;;5048510;28;20032;-51
2022/04/09 09:29:57;;;;;;;3.45;0.85;;;;;;;;;;5048450;28;20021;-50
2022/04/09 09:32:28;;;;;;;2.47;0.88;;;;;;;;;;5036859;28;20042;-52
2022/04/09 09:34:55;;;;;;;6.10;0.93;;;;;;;;;;5037187;28;20419;-51
2022/04/09 09:37:25;;;;;;;1.73;1.00;;;;;;;;;;5039049;28;20029;-50
2022/04/09 09:39:51;;;;;;;5.45;1.42;;;;;;;;;;5036192;28;20810;-53
2022/04/09 09:42:21;;;;;;;2.78;1.10;;;;;;;;;;5048270;28;20060;-49
2022/04/09 09:44:47;;;;;;;6.28;1.30;;;;;;;;;;5047061;28;20057;-49
2022/04/09 09:47:15;;;;;;;3.03;1.20;;;;;;;;;;5044329;28;20531;-52
2022/04/09 09:49:56;;;;;;;4.38;1.15;;;;;;;;;;5033095;28;20098;-51
2022/04/09 09:52:29;;;;;;;2.75;0.93;;;;;;;;;;5024330;28;20036;-51
2022/04/09 09:54:56;;;;;;;6.43;1.20;;;;;;;;;;5034110;28;20021;-49
2022/04/09 09:57:23;;;;;;;3.15;0.60;;;;;;;;;;5046166;28;20045;-50
2022/04/09 09:59:51;;;;;;;7.72;1.08;;;;;;;;;;5037865;28;20033;-52
2022/04/09 10:02:23;;;;;;;6.93;0.98;;;;;;;;;;5047044;28;20032;-50
2022/04/09 10:04:50;;;;;;;2.22;0.93;;;;;;;;;;5044021;28;20033;-50
2022/04/09 10:07:16;;;;;;;2.88;0.70;;;;;;;;;;5045927;28;20070;-50
2022/04/09 10:09:42;;;;;;;3.92;0.80;;;;;;;;;;5040928;28;20100;-48
2022/04/09 10:12:18;;;;;;;4.78;1.33;;;;;;;;;;5038061;28;20025;-49
2022/04/09 10:14:45;;;;;;;3.53;1.00;;;;;;;;;;5042622;28;20445;-50
2022/04/09 10:17:12;;;;;;;3.55;0.90;;;;;;;;;;5039124;28;20454;-52
2022/04/09 10:19:43;;;;;;;4.72;1.10;;;;;;;;;;5044161;28;20028;-52
2022/04/09 10:22:11;;;;;;;5.72;1.15;;;;;;;;;;5041214;28;20038;-50
2022/04/09 10:24:39;;;;;;;6.43;1.05;;;;;;;;;;5034844;28;20052;-49
2022/04/09 10:27:07;;;;;;;3.40;1.25;;;;;;;;;;5044121;28;20107;-48
2022/04/09 10:29:49;;;;;;;3.22;1.33;;;;;;;;;;5039529;28;20025;-54
2022/04/09 10:32:36;;;;;;;4.05;0.77;;;;;;;;;;5046392;28;20056;-49
2022/04/09 10:35:02;;;;;;;5.15;0.85;;;;;;;;;;5044233;28;20037;-50
2022/04/09 10:37:28;;;;;;;2.60;0.70;;;;;;;;;;5042058;28;20092;-51
2022/04/09 10:39:54;;;;;;;3.33;1.02;;;;;;;;;;5035139;28;20037;-49
2022/04/09 10:42:38;;;;;;;2.22;0.70;;;;;;;;;;5034314;28;20033;-53
2022/04/09 10:45:05;;;;;;;3.40;1.08;;;;;;;;;;5038701;28;20108;-49
2022/04/09 10:47:51;;;;;;;2.13;0.95;;;;;;;;;;5039638;28;20347;-53
2022/04/09 10:50:17;;;;;;;2.83;1.08;;;;;;;;;;5038572;28;20074;-49
2022/04/09 10:52:48;;;;;;;2.15;0.90;;;;;;;;;;5037175;28;21285;-49
2022/04/09 10:55:15;;;;;;;2.58;0.82;;;;;;;;;;5039853;28;20469;-48
2022/04/09 10:57:45;;;;;;;2.55;0.70;;;;;;;;;;5044725;28;20116;-50
2022/04/09 11:00:22;;;;;;;1.70;0.90;;;;;;;;;;5035682;28;20032;-51
2022/04/09 11:03:07;;;;;;;0.63;0.55;;;;;;;;;;5046563;28;20108;-50
2022/04/09 11:05:33;;;;;;;5.43;0.82;;;;;;;;;;5037387;28;20315;-50
2022/04/09 11:08:08;;;;;;;3.97;0.77;;;;;;;;;;5048525;28;20033;-49
2022/04/09 11:10:35;;;;;;;3.28;0.93;;;;;;;;;;5044877;28;20080;-49
2022/04/09 11:13:01;;;;;;;4.00;0.75;;;;;;;;;;5046454;28;20083;-49
2022/04/09 11:15:28;;;;;;;2.72;0.95;;;;;;;;;;5037902;28;20112;-51
2022/04/09 11:18:02;;;;;;;2.80;0.55;;;;;;;;;;5043237;28;20091;-48
2022/04/09 11:20:36;;;;;;;1.83;0.60;;;;;;;;;;5036087;28;20752;-48
2022/04/09 11:23:12;;;;;;;1.65;0.60;;;;;;;;;;5043141;28;20404;-52
2022/04/09 11:25:41;;;;;;;1.75;0.65;;;;;;;;;;5053302;28;20025;-52
2022/04/09 11:28:10;;;;;;;3.42;0.70;;;;;;;;;;5052191;28;20075;-50
2022/04/09 11:30:36;;;;;;;2.35;0.80;;;;;;;;;;5055127;28;20033;-52
2022/04/09 11:33:02;;;;;;;4.40;0.77;;;;;;;;;;5054100;28;20377;-51
2022/04/09 11:35:33;;;;;;;2.67;0.50;;;;;;;;;;5054213;28;20531;-49
2022/04/09 11:37:59;;;;;;;3.40;0.70;;;;;;;;;;5054845;28;20473;-50
2022/04/09 11:40:25;;;;;;;2.30;0.80;;;;;;;;;;5048084;28;20056;-51
2022/04/09 11:42:52;;;;;;;3.05;0.50;;;;;;;;;;5034981;28;20033;-50
2022/04/09 11:45:19;;;;;;;1.45;0.50;;;;;;;;;;5051391;28;20026;-51
2022/04/09 11:47:46;;;;;;;1.75;0.40;;;;;;;;;;5036917;28;20032;-49
2022/04/09 11:50:12;;;;;;;5.82;0.80;;;;;;;;;;5054109;28;20526;-49
2022/04/09 11:52:38;;;;;;;2.35;0.77;;;;;;;;;;5053556;28;20040;-49
2022/04/09 11:55:09;;;;;;;1.17;0.45;;;;;;;;;;5054458;28;20037;-48
2022/04/09 11:57:36;;;;;;;1.67;0.30;;;;;;;;;;5054518;28;20059;-49
2022/04/09 12:00:02;;;;;;;5.13;0.60;;;;;;;;;;5042166;28;20052;-50
2022/04/09 12:02:28;;;;;;;1.02;0.50;;;;;;;;;;5037666;28;20036;-49
2022/04/09 12:04:55;;;;;;;1.33;0.50;;;;;;;;;;5051148;28;20109;-55
2022/04/09 12:07:21;;;;;;;1.30;0.45;;;;;;;;;;5042176;28;20453;-49
2022/04/09 12:09:47;;;;;;;2.35;0.50;;;;;;;;;;5048570;28;20035;-52
2022/04/09 12:12:13;;;;;;;4.13;0.45;;;;;;;;;;5051020;28;20025;-51
2022/04/09 12:14:40;;;;;;;2.72;0.50;;;;;;;;;;5042852;28;20029;-51
2022/04/09 12:17:10;;;;;;;1.48;0.38;;;;;;;;;;5054242;28;20048;-50
2022/04/09 12:19:37;;;;;;;3.53;0.77;;;;;;;;;;5053515;28;20556;-49
2022/04/09 12:22:33;;;;;;;1.13;0.60;;;;;;;;;;5053520;28;20052;-49
2022/04/09 12:24:59;;;;;;;1.40;0.60;;;;;;;;;;5035591;28;20098;-53
2022/04/09 12:27:45;;;;;;;0.52;0.20;;;;;;;;;;5053914;28;20018;-51
2022/04/09 12:30:11;;;;;;;2.22;0.25;;;;;;;;;;5046494;28;20051;-52
2022/04/09 12:32:39;;;;;;;1.30;0.20;;;;;;;;;;5052130;28;20087;-52
2022/04/09 12:35:07;;;;;;;0.75;0.20;;;;;;;;;;5041168;28;20432;-51
2022/04/09 12:37:52;;;;;;;2.42;0.47;;;;;;;;;;5051406;28;20377;-49
2022/04/09 12:40:21;;;;;;;0.55;0.22;;;;;;;;;;5037920;28;20033;-49
2022/04/09 12:42:47;;;;;;;2.08;0.30;;;;;;;;;;5032035;28;20029;-54
2022/04/09 12:45:13;;;;;;;0.63;0.25;;;;;;;;;;5039022;28;20055;-49
2022/04/09 12:47:40;;;;;;;1.80;0.40;;;;;;;;;;5049337;28;20025;-49
2022/04/09 12:50:17;;;;;;;0.55;0.20;;;;;;;;;;5052940;28;20028;-51
2022/04/09 12:52:43;;;;;;;0.93;0.38;;;;;;;;;;5046382;28;20038;-52
2022/04/09 12:55:09;;;;;;;0.57;0.20;;;;;;;;;;5043718;28;20048;-49
2022/04/09 12:57:35;;;;;;;1.95;0.20;;;;;;;;;;5053524;28;20056;-49
2022/04/09 13:00:01;;;;;;;0.10;0.10;;;;;;;;;;5043651;28;20413;-51
2022/04/09 13:02:27;;;;;;;0.65;0.17;;;;;;;;;;5049865;28;20039;-49
2022/04/09 13:04:53;;;;;;;0.85;0.08;;;;;;;;;;5053375;28;20532;-49
2022/04/09 13:07:19;;;;;;;1.50;0.25;;;;;;;;;;5050364;28;20100;-50
2022/04/09 13:09:45;;;;;;;0.60;0.10;;;;;;;;;;5046838;28;20032;-54
2022/04/09 13:12:11;;;;;;;0.08;0.08;;;;;;;;;;5052466;28;20029;-49
2022/04/09 13:14:37;;;;;;;0.68;0.30;;;;;;;;;;5049390;28;20082;-49
2022/04/09 13:17:03;;;;;;;1.73;0.30;;;;;;;;;;5053100;28;20121;-50
2022/04/09 13:19:31;;;;;;;1.75;0.30;;;;;;;;;;5053114;28;20036;-52
2022/04/09 13:21:57;;;;;;;1.38;0.13;;;;;;;;;;5052582;28;20028;-51
2022/04/09 13:24:23;;;;;;;0.55;0.35;;;;;;;;;;5042267;28;20032;-50
2022/04/09 13:26:49;;;;;;;1.23;0.38;;;;;;;;;;5050479;28;20361;-50
2022/04/09 13:29:15;;;;;;;0.75;0.22;;;;;;;;;;5050420;28;20014;-52
2022/04/09 13:31:41;;;;;;;1.08;0.30;;;;;;;;;;5049516;28;20067;-49
2022/04/09 13:34:11;;;;;;;0.98;0.30;;;;;;;;;;5052759;28;20104;-49
2022/04/09 13:36:37;;;;;;;1.20;0.60;;;;;;;;;;5052776;28;20083;-51
2022/04/09 13:39:03;;;;;;;2.85;0.32;;;;;;;;;;5052634;28;20032;-55
2022/04/09 13:41:29;;;;;;;0.43;0.22;;;;;;;;;;5034894;28;20051;-51
2022/04/09 13:43:55;;;;;;;0.55;0.20;;;;;;;;;;5052832;28;20032;-53
2022/04/09 13:46:21;;;;;;;2.28;0.28;;;;;;;;;;5043986;28;20033;-52
2022/04/09 13:48:47;;;;;;;0.70;0.30;;;;;;;;;;5043173;28;20411;-52
2022/04/09 13:51:14;;;;;;;4.07;0.30;;;;;;;;;;5051450;28;20036;-52
2022/04/09 13:53:40;;;;;;;0.82;0.20;;;;;;;;;;5048968;28;20035;-49
2022/04/09 13:56:06;;;;;;;0.50;0.20;;;;;;;;;;5039965;28;20052;-49
2022/04/09 13:58:32;;;;;;;0.65;0.20;;;;;;;;;;5034147;28;20503;-51
2022/04/09 14:00:58;;;;;;;1.40;0.20;;;;;;;;;;5037637;28;20032;-49
2022/04/09 14:03:24;;;;;;;0.15;0.10;;;;;;;;;;5047029;28;20384;-50
2022/04/09 14:05:50;;;;;;;0.65;0.30;;;;;;;;;;5052061;28;20056;-50
2022/04/09 14:08:16;;;;;;;0.20;0.20;;;;;;;;;;5045739;28;20025;-48
2022/04/09 14:10:45;;;;;;;1.25;0.20;;;;;;;;;;5040417;28;20012;-49
2022/04/09 14:13:10;;;;;;;0.40;0.20;;;;;;;;;;5048635;28;20032;-49
2022/04/09 14:15:36;;;;;;;1.35;0.20;;;;;;;;;;5041999;28;20066;-49
2022/04/09 14:18:03;;;;;;;0.75;0.20;;;;;;;;;;5041310;28;20021;-49
2022/04/09 14:20:29;;;;;;;0.20;0.08;;;;;;;;;;5044605;28;20405;-51
2022/04/09 14:22:55;;;;;;;0.10;0.10;;;;;;;;;;5040345;28;20438;-49
2022/04/09 14:25:22;;;;;;;0.73;0.38;;;;;;;;;;5045846;28;20033;-51
2022/04/09 14:27:48;;;;;;;0.82;0.38;;;;;;;;;;5046503;28;20070;-52
2022/04/09 14:30:14;;;;;;;0.70;0.25;;;;;;;;;;5042667;28;20017;-48
2022/04/09 14:32:41;;;;;;;1.25;0.20;;;;;;;;;;5043448;28;20029;-49
2022/04/09 14:35:07;;;;;;;1.05;0.45;;;;;;;;;;5048306;28;20033;-49
2022/04/09 14:37:33;;;;;;;2.40;0.30;;;;;;;;;;5037877;28;20033;-49
2022/04/09 14:39:59;;;;;;;1.13;0.20;;;;;;;;;;5047553;28;20048;-49
2022/04/09 14:42:25;;;;;;;2.80;0.40;;;;;;;;;;5033740;28;20026;-48